Time;durP1;ratioP1;P1;durP2;ratioP2;P2;SDS_P1;SDS_P2;PMS_P1;PMS_P2;Temp;Humidity;BMP_temperature;BMP_pressure;BME280_temperature;BME280_humidity;BME280_pressure;Samples;Min_cycle;Max_cycle;Signal;HPM_P1;HPM_P2
2024/01/27 00:02:03;;;;;;;22.60;2.63;;;4.00;99.90;;;;;;6346786;22;20003;-91
2024/01/27 00:04:29;;;;;;;22.05;2.72;;;3.90;99.90;;;;;;6352778;22;20075;-90
2024/01/27 00:06:54;;;;;;;18.52;2.40;;;3.90;99.90;;;;;;6352497;22;20034;-92
2024/01/27 00:09:20;;;;;;;16.83;2.88;;;3.90;99.90;;;;;;6347862;22;20022;-90
2024/01/27 00:11:46;;;;;;;19.42;2.88;;;3.90;99.90;;;;;;6346224;22;19999;-91
2024/01/27 00:14:11;;;;;;;13.80;2.10;;;3.80;99.90;;;;;;6348332;22;20044;-91
2024/01/27 00:16:37;;;;;;;21.85;3.85;;;3.80;99.90;;;;;;6346407;22;20298;-91
2024/01/27 00:19:03;;;;;;;25.02;3.10;;;3.90;99.90;;;;;;6345518;22;20029;-91
2024/01/27 00:21:28;;;;;;;13.07;2.65;;;3.90;99.90;;;;;;6344929;22;20035;-91
2024/01/27 00:23:55;;;;;;;14.25;2.22;;;3.90;99.90;;;;;;6344619;22;20021;-89
2024/01/27 00:26:20;;;;;;;19.63;2.20;;;3.90;99.90;;;;;;6344917;22;20009;-91
2024/01/27 00:28:46;;;;;;;16.40;2.40;;;3.90;99.90;;;;;;6345395;22;20455;-90
2024/01/27 00:31:11;;;;;;;19.85;2.70;;;3.90;99.90;;;;;;6345283;22;20087;-91
2024/01/27 00:33:37;;;;;;;16.42;2.55;;;3.90;99.90;;;;;;6345242;22;20034;-91
2024/01/27 00:36:03;;;;;;;25.75;3.25;;;3.90;99.90;;;;;;6346140;22;20445;-91
2024/01/27 00:38:29;;;;;;;13.02;1.77;;;3.90;99.90;;;;;;6344875;22;20005;-91
2024/01/27 00:40:54;;;;;;;15.10;2.20;;;3.90;99.90;;;;;;6345653;22;20006;-91
2024/01/27 00:43:20;;;;;;;20.70;2.50;;;3.90;99.90;;;;;;6343806;22;20014;-92
2024/01/27 00:45:46;;;;;;;22.08;3.58;;;3.90;99.90;;;;;;6344876;22;20025;-91
2024/01/27 00:48:11;;;;;;;21.23;2.55;;;3.90;99.90;;;;;;6344450;22;20055;-91
2024/01/27 00:50:37;;;;;;;19.60;2.97;;;3.90;99.90;;;;;;6343583;22;20007;-91
2024/01/27 00:53:03;;;;;;;15.88;2.17;;;3.90;99.90;;;;;;6345315;22;20010;-92
2024/01/27 00:55:28;;;;;;;20.90;2.47;;;3.90;99.90;;;;;;6344964;22;19998;-92
2024/01/27 00:57:54;;;;;;;15.63;2.53;;;3.90;99.90;;;;;;6346070;22;20041;-91
2024/01/27 01:00:20;;;;;;;13.10;2.30;;;3.90;99.90;;;;;;6345093;22;20005;-92
2024/01/27 01:02:47;;;;;;;19.98;2.15;;;3.90;99.90;;;;;;6345350;22;20132;-91
2024/01/27 01:05:13;;;;;;;19.05;2.95;;;4.00;99.90;;;;;;6345868;22;20306;-91
2024/01/27 01:07:39;;;;;;;23.65;2.55;;;3.90;99.90;;;;;;6345863;22;20487;-92
2024/01/27 01:10:05;;;;;;;21.95;3.45;;;3.90;99.90;;;;;;6358367;22;19998;-90
2024/01/27 01:12:31;;;;;;;14.43;2.67;;;4.00;99.90;;;;;;6350313;22;20003;-91
2024/01/27 01:14:57;;;;;;;23.80;2.97;;;4.00;99.90;;;;;;6345733;22;20019;-92
2024/01/27 01:17:23;;;;;;;16.52;3.78;;;4.00;99.90;;;;;;6346219;22;20013;-92
2024/01/27 01:19:49;;;;;;;20.55;2.35;;;4.10;99.90;;;;;;6345859;22;20007;-92
2024/01/27 01:22:14;;;;;;;11.30;1.35;;;4.10;99.90;;;;;;6345559;22;20433;-93
2024/01/27 01:24:40;;;;;;;21.20;3.22;;;4.20;99.90;;;;;;6345783;22;20010;-92
2024/01/27 01:27:07;;;;;;;9.00;1.85;;;4.30;99.90;;;;;;6347214;22;20009;-92
2024/01/27 01:29:32;;;;;;;17.80;2.78;;;4.30;99.90;;;;;;6354112;22;20104;-91
2024/01/27 01:31:58;;;;;;;19.63;2.53;;;4.40;99.90;;;;;;6350392;22;20092;-90
2024/01/27 01:34:24;;;;;;;16.40;1.65;;;4.50;99.90;;;;;;6348082;22;20006;-90
2024/01/27 01:36:49;;;;;;;14.63;1.83;;;4.50;99.90;;;;;;6346905;22;20428;-90
2024/01/27 01:39:15;;;;;;;13.40;2.05;;;4.50;99.90;;;;;;6347217;22;20311;-90
2024/01/27 01:41:41;;;;;;;21.33;2.63;;;4.60;99.90;;;;;;6369627;22;20029;-90
2024/01/27 01:44:07;;;;;;;18.60;2.70;;;4.60;99.90;;;;;;6358194;22;20094;-90
2024/01/27 01:46:34;;;;;;;16.55;2.05;;;4.70;99.90;;;;;;6331655;22;19998;-90
2024/01/27 01:49:00;;;;;;;23.83;3.25;;;4.70;99.90;;;;;;6368838;22;19995;-90
2024/01/27 01:51:27;;;;;;;26.55;3.80;;;4.70;99.90;;;;;;6370510;22;19994;-89
2024/01/27 01:53:57;;;;;;;13.77;2.00;;;4.70;99.90;;;;;;6366184;22;20006;-93
2024/01/27 01:56:23;;;;;;;15.48;2.38;;;4.70;99.90;;;;;;6355764;22;20003;-92
2024/01/27 01:58:49;;;;;;;14.73;2.20;;;4.70;99.90;;;;;;6365713;22;20055;-92
2024/01/27 02:01:17;;;;;;;12.30;1.58;;;4.70;99.90;;;;;;6366646;22;20003;-89
2024/01/27 02:03:56;;;;;;;11.35;1.52;;;4.80;99.90;;;;;;6366474;22;20025;-91
2024/01/27 02:06:22;;;;;;;13.60;2.00;;;4.80;99.90;;;;;;6362577;22;20026;-90
2024/01/27 02:08:47;;;;;;;16.38;2.08;;;4.80;99.90;;;;;;6351621;22;20029;-91
2024/01/27 02:11:13;;;;;;;19.20;4.20;;;4.80;99.90;;;;;;6377207;22;20006;-92
2024/01/27 02:13:39;;;;;;;13.27;2.53;;;4.80;99.90;;;;;;6349663;22;20007;-92
2024/01/27 02:16:05;;;;;;;15.80;2.28;;;4.80;99.90;;;;;;6348623;22;19999;-92
2024/01/27 02:18:31;;;;;;;14.40;3.10;;;4.80;99.90;;;;;;6375926;22;20009;-92
2024/01/27 02:20:57;;;;;;;19.10;2.08;;;4.90;99.90;;;;;;6348887;22;20010;-92
2024/01/27 02:23:22;;;;;;;14.88;1.80;;;4.90;99.90;;;;;;6349363;22;20414;-92
2024/01/27 02:25:50;;;;;;;18.23;1.92;;;4.90;99.90;;;;;;6348426;22;20084;-91
2024/01/27 02:28:16;;;;;;;14.55;2.00;;;4.90;99.90;;;;;;6347956;22;20059;-89
2024/01/27 02:30:42;;;;;;;12.82;2.35;;;4.90;99.90;;;;;;6347565;22;20003;-93
2024/01/27 02:33:07;;;;;;;14.30;1.98;;;4.90;99.90;;;;;;6346450;22;20059;-93
2024/01/27 02:35:33;;;;;;;20.95;2.92;;;5.00;99.90;;;;;;6348470;22;20013;-92
2024/01/27 02:37:59;;;;;;;18.10;2.20;;;5.00;99.90;;;;;;6348005;22;20025;-93
2024/01/27 02:40:25;;;;;;;15.25;1.83;;;5.00;99.90;;;;;;6346135;22;20384;-93
2024/01/27 02:42:50;;;;;;;23.08;2.88;;;5.00;99.90;;;;;;6345628;22;20010;-92
2024/01/27 02:45:16;;;;;;;6.07;1.30;;;5.00;99.90;;;;;;6346064;22;20089;-91
2024/01/27 02:47:42;;;;;;;17.38;2.17;;;5.00;99.90;;;;;;6345797;22;20010;-93
2024/01/27 02:50:08;;;;;;;16.77;2.08;;;5.00;99.90;;;;;;6345360;22;20010;-91
2024/01/27 02:52:34;;;;;;;17.08;2.55;;;5.10;99.90;;;;;;6345953;22;20005;-92
2024/01/27 02:55:00;;;;;;;14.65;1.90;;;5.10;99.90;;;;;;6345985;22;20010;-93
2024/01/27 02:57:26;;;;;;;12.10;1.63;;;5.10;99.90;;;;;;6350816;22;20009;-92
2024/01/27 02:59:52;;;;;;;19.75;1.70;;;5.10;99.90;;;;;;6355031;22;20098;-92
2024/01/27 03:02:18;;;;;;;7.20;1.38;;;5.20;99.90;;;;;;6349963;22;20006;-92
2024/01/27 03:04:43;;;;;;;15.20;1.80;;;5.20;99.90;;;;;;6349578;22;20082;-92
2024/01/27 03:07:09;;;;;;;13.82;3.08;;;5.20;99.90;;;;;;6348358;22;20006;-92
2024/01/27 03:09:36;;;;;;;15.70;2.25;;;5.20;99.90;;;;;;6346555;22;20123;-91
2024/01/27 03:12:02;;;;;;;9.80;1.58;;;5.30;99.90;;;;;;6345704;22;20002;-92
2024/01/27 03:14:28;;;;;;;12.30;2.08;;;5.30;99.90;;;;;;6346301;22;20054;-92
2024/01/27 03:16:54;;;;;;;17.05;1.85;;;5.30;99.90;;;;;;6345769;22;20009;-92
2024/01/27 03:19:20;;;;;;;21.52;2.28;;;5.30;99.90;;;;;;6349009;22;20003;-92
2024/01/27 03:21:46;;;;;;;10.23;1.77;;;5.30;99.90;;;;;;6348435;22;20476;-93
2024/01/27 03:24:11;;;;;;;13.07;3.80;;;5.30;99.90;;;;;;6345595;22;20038;-91
2024/01/27 03:26:37;;;;;;;9.27;1.63;;;5.40;99.90;;;;;;6348706;22;20007;-92
2024/01/27 03:29:03;;;;;;;16.48;2.28;;;5.40;99.90;;;;;;6355689;22;20037;-92
2024/01/27 03:31:33;;;;;;;10.77;1.80;;;5.40;99.90;;;;;;6354265;22;20019;-91
2024/01/27 03:33:59;;;;;;;17.85;1.98;;;5.40;99.90;;;;;;6353582;22;20013;-91
2024/01/27 03:36:25;;;;;;;18.35;1.83;;;5.40;99.90;;;;;;6349456;22;20067;-91
2024/01/27 03:38:50;;;;;;;15.70;2.33;;;5.40;99.90;;;;;;6348453;22;20007;-92
2024/01/27 03:41:16;;;;;;;20.33;2.25;;;5.40;99.90;;;;;;6347153;22;20059;-92
2024/01/27 03:43:42;;;;;;;12.70;1.50;;;5.40;99.90;;;;;;6344591;22;20077;-91
2024/01/27 03:46:07;;;;;;;13.90;2.00;;;5.50;99.90;;;;;;6345181;22;19998;-91
2024/01/27 03:48:35;;;;;;;14.02;2.28;;;5.50;99.90;;;;;;6344797;22;20036;-91
2024/01/27 03:51:01;;;;;;;16.73;1.73;;;5.50;99.90;;;;;;6344547;22;20024;-90
2024/01/27 03:53:27;;;;;;;8.07;1.23;;;5.50;99.90;;;;;;6344738;22;20002;-91
2024/01/27 03:55:53;;;;;;;14.07;3.38;;;5.50;99.90;;;;;;6344897;22;20006;-90
2024/01/27 03:58:19;;;;;;;12.27;2.20;;;5.50;99.90;;;;;;6345150;22;20009;-91
2024/01/27 04:00:45;;;;;;;7.80;1.33;;;5.50;99.90;;;;;;6344558;22;20333;-92
2024/01/27 04:03:10;;;;;;;11.55;2.40;;;5.50;99.90;;;;;;6346719;22;20552;-91
2024/01/27 04:05:36;;;;;;;7.15;1.05;;;5.50;99.90;;;;;;6345939;22;20092;-90
2024/01/27 04:08:03;;;;;;;11.07;1.25;;;5.50;99.90;;;;;;6374015;22;20078;-89
2024/01/27 04:10:29;;;;;;;14.82;1.88;;;5.50;99.90;;;;;;6347092;22;20006;-90
2024/01/27 04:12:54;;;;;;;14.27;1.40;;;5.50;99.90;;;;;;6346880;22;20005;-92
2024/01/27 04:15:20;;;;;;;10.90;2.30;;;5.60;99.90;;;;;;6347082;22;20010;-90
2024/01/27 04:17:46;;;;;;;12.13;1.70;;;5.60;99.90;;;;;;6374749;22;20020;-90
2024/01/27 04:20:11;;;;;;;12.05;1.73;;;5.50;99.90;;;;;;6345385;22;20041;-91
2024/01/27 04:22:37;;;;;;;15.18;2.38;;;5.60;99.90;;;;;;6345784;22;20028;-91
2024/01/27 04:25:03;;;;;;;15.65;2.05;;;5.60;99.90;;;;;;6346234;22;20080;-91
2024/01/27 04:27:29;;;;;;;14.75;1.42;;;5.60;99.90;;;;;;6347313;22;19995;-91
2024/01/27 04:29:56;;;;;;;4.85;1.08;;;5.60;99.90;;;;;;6346516;22;20009;-90
2024/01/27 04:32:22;;;;;;;20.33;1.80;;;5.60;99.90;;;;;;6346626;22;20434;-90
2024/01/27 04:34:48;;;;;;;16.52;2.72;;;5.60;99.90;;;;;;6346670;22;20025;-90
2024/01/27 04:37:14;;;;;;;16.00;1.92;;;5.60;99.90;;;;;;6349069;22;20006;-89
2024/01/27 04:39:39;;;;;;;9.73;2.05;;;5.60;99.90;;;;;;6370093;22;20005;-91
2024/01/27 04:42:08;;;;;;;11.50;1.67;;;5.60;99.90;;;;;;6368245;22;20018;-89
2024/01/27 04:44:35;;;;;;;14.32;1.67;;;5.50;99.90;;;;;;6367580;22;20413;-89
2024/01/27 04:47:00;;;;;;;13.05;1.73;;;5.50;99.90;;;;;;6354759;22;20071;-90
2024/01/27 04:49:26;;;;;;;20.70;3.75;;;5.50;99.90;;;;;;6345560;22;20006;-90
2024/01/27 04:51:52;;;;;;;8.40;2.08;;;5.50;99.90;;;;;;6345366;22;20002;-90
2024/01/27 04:54:18;;;;;;;15.85;3.30;;;5.40;99.90;;;;;;6346182;22;20002;-91
2024/01/27 04:56:44;;;;;;;13.95;1.80;;;5.40;99.90;;;;;;6345572;22;20070;-90
2024/01/27 04:59:09;;;;;;;11.02;1.40;;;5.30;99.90;;;;;;6345597;22;20010;-90
2024/01/27 05:01:35;;;;;;;15.23;2.08;;;5.30;99.90;;;;;;6345688;22;19998;-90
2024/01/27 05:04:01;;;;;;;19.08;1.63;;;5.30;99.90;;;;;;6345544;22;20011;-89
2024/01/27 05:06:26;;;;;;;18.15;1.92;;;5.20;99.90;;;;;;6345096;22;20003;-91
2024/01/27 05:08:52;;;;;;;19.27;2.08;;;5.20;99.90;;;;;;6346166;22;20497;-90
2024/01/27 05:11:32;;;;;;;20.50;2.88;;;5.00;99.90;;;;;;6346173;22;20058;-89
2024/01/27 05:14:01;;;;;;;14.00;1.65;;;5.00;99.90;;;;;;6345051;22;20086;-89
2024/01/27 05:16:28;;;;;;;19.90;2.67;;;5.00;99.90;;;;;;6345220;22;20070;-90
2024/01/27 05:18:54;;;;;;;11.32;2.35;;;4.90;99.90;;;;;;6372728;22;20082;-89
2024/01/27 05:21:19;;;;;;;9.85;2.10;;;4.90;99.90;;;;;;6345263;22;20002;-89
2024/01/27 05:23:45;;;;;;;15.88;1.88;;;4.90;99.90;;;;;;6344292;22;20025;-90
2024/01/27 05:26:11;;;;;;;20.60;1.98;;;4.90;99.90;;;;;;6344352;22;20002;-90
2024/01/27 05:28:39;;;;;;;12.75;1.67;;;4.80;99.90;;;;;;6344620;22;20032;-90
2024/01/27 05:31:07;;;;;;;7.50;1.40;;;4.80;99.90;;;;;;6344736;22;19999;-89
2024/01/27 05:33:33;;;;;;;11.18;1.42;;;4.80;99.90;;;;;;6344845;22;20010;-89
2024/01/27 05:35:59;;;;;;;20.55;2.03;;;4.80;99.90;;;;;;6344678;22;20010;-92
2024/01/27 05:38:25;;;;;;;20.67;3.47;;;4.70;99.90;;;;;;6372107;22;20371;-90
2024/01/27 05:40:51;;;;;;;16.90;1.85;;;4.80;99.90;;;;;;6344488;22;20059;-91
2024/01/27 05:43:17;;;;;;;13.90;1.70;;;4.80;99.90;;;;;;6344566;22;20014;-90
2024/01/27 05:45:45;;;;;;;12.60;1.48;;;4.80;99.90;;;;;;6343710;22;20008;-91
2024/01/27 05:48:11;;;;;;;11.55;1.88;;;4.80;99.90;;;;;;6344531;22;20006;-90
2024/01/27 05:50:36;;;;;;;11.77;1.58;;;4.80;99.90;;;;;;6345007;22;20449;-90
2024/01/27 05:53:02;;;;;;;14.88;1.60;;;4.90;99.90;;;;;;6345357;22;20013;-90
2024/01/27 05:55:28;;;;;;;12.18;1.83;;;4.90;99.90;;;;;;6374887;22;20023;-91
2024/01/27 05:57:56;;;;;;;13.32;2.20;;;4.90;99.90;;;;;;6347366;22;20006;-90
2024/01/27 06:00:22;;;;;;;14.65;2.30;;;4.90;99.90;;;;;;6346904;22;20006;-89
2024/01/27 06:02:48;;;;;;;12.63;1.90;;;4.90;99.90;;;;;;6345076;22;20003;-90
2024/01/27 06:05:13;;;;;;;16.38;1.55;;;4.90;99.90;;;;;;6346814;22;20013;-91
2024/01/27 06:07:39;;;;;;;19.70;1.85;;;4.90;99.90;;;;;;6344454;22;20006;-90
2024/01/27 06:10:11;;;;;;;11.80;1.88;;;5.00;99.90;;;;;;6344758;22;20506;-90
2024/01/27 06:12:38;;;;;;;13.40;1.67;;;5.00;99.90;;;;;;6343569;22;20002;-89
2024/01/27 06:15:04;;;;;;;12.77;1.85;;;5.00;99.90;;;;;;6371476;22;20004;-90
2024/01/27 06:17:30;;;;;;;20.17;2.53;;;5.00;99.90;;;;;;6343537;22;20055;-90
2024/01/27 06:19:55;;;;;;;16.77;2.28;;;5.00;99.90;;;;;;6343030;22;20006;-92
2024/01/27 06:22:21;;;;;;;15.23;2.30;;;5.00;99.90;;;;;;6370265;22;20002;-90
2024/01/27 06:24:47;;;;;;;15.30;1.77;;;5.00;99.90;;;;;;6369121;22;20014;-89
2024/01/27 06:27:12;;;;;;;10.07;1.60;;;5.00;99.90;;;;;;6342974;22;20032;-91
2024/01/27 06:29:40;;;;;;;10.77;1.63;;;5.00;99.90;;;;;;6343258;22;20006;-90
2024/01/27 06:32:06;;;;;;;13.85;1.98;;;5.00;99.90;;;;;;6371135;22;20024;-89
2024/01/27 06:34:33;;;;;;;14.93;1.60;;;5.00;99.90;;;;;;6343715;22;20387;-89
2024/01/27 06:36:58;;;;;;;12.23;1.55;;;5.10;99.90;;;;;;6344923;22;20014;-91
2024/01/27 06:39:24;;;;;;;17.73;1.90;;;5.10;99.90;;;;;;6372571;22;20051;-89
2024/01/27 06:41:51;;;;;;;13.02;1.77;;;5.10;99.90;;;;;;6377597;22;20463;-91
2024/01/27 06:44:17;;;;;;;14.75;2.65;;;5.10;99.90;;;;;;6371779;22;20037;-90
2024/01/27 06:46:44;;;;;;;9.95;1.40;;;5.10;99.90;;;;;;6373281;22;19991;-92
2024/01/27 06:49:10;;;;;;;10.23;1.85;;;5.20;99.90;;;;;;6370715;22;19994;-89
2024/01/27 06:51:36;;;;;;;9.68;1.98;;;5.20;99.90;;;;;;6344562;22;20033;-91
2024/01/27 06:54:01;;;;;;;10.32;1.67;;;5.20;99.90;;;;;;6370849;22;20006;-92
2024/01/27 06:56:27;;;;;;;12.57;2.97;;;5.20;99.90;;;;;;6369769;22;20073;-91
2024/01/27 06:58:53;;;;;;;14.73;1.83;;;5.20;99.90;;;;;;6370774;22;20007;-90
2024/01/27 07:01:18;;;;;;;10.90;1.75;;;5.30;99.90;;;;;;6343206;22;20071;-90
2024/01/27 07:03:44;;;;;;;12.20;2.10;;;5.30;99.90;;;;;;6343611;22;20379;-91
2024/01/27 07:06:11;;;;;;;18.20;3.33;;;5.30;99.90;;;;;;6344945;22;20045;-91
2024/01/27 07:08:37;;;;;;;14.90;2.80;;;5.30;99.90;;;;;;6344959;22;19999;-90
2024/01/27 07:11:03;;;;;;;19.67;3.75;;;5.30;99.90;;;;;;6345596;22;20013;-91
2024/01/27 07:13:30;;;;;;;16.50;1.77;;;5.30;99.90;;;;;;6351073;22;20102;-91
2024/01/27 07:15:57;;;;;;;12.02;1.90;;;5.30;99.90;;;;;;6352092;22;20093;-90
2024/01/27 07:18:24;;;;;;;19.20;3.28;;;5.30;99.90;;;;;;6350292;22;20002;-90
2024/01/27 07:20:49;;;;;;;10.75;1.80;;;5.30;99.90;;;;;;6347723;22;20008;-92
2024/01/27 07:23:15;;;;;;;14.00;1.80;;;5.30;99.90;;;;;;6345938;22;20433;-92
2024/01/27 07:25:41;;;;;;;9.75;1.65;;;5.30;99.90;;;;;;6342951;22;20002;-91
2024/01/27 07:28:06;;;;;;;12.85;2.22;;;5.40;99.90;;;;;;6344476;22;20502;-89
2024/01/27 07:30:32;;;;;;;17.08;1.90;;;5.40;99.90;;;;;;6343920;22;20013;-91
2024/01/27 07:32:58;;;;;;;12.90;2.03;;;5.40;99.90;;;;;;6370454;22;20010;-90
2024/01/27 07:35:23;;;;;;;14.90;2.70;;;5.40;99.90;;;;;;6343019;22;20006;-90
2024/01/27 07:37:49;;;;;;;11.75;1.58;;;5.40;99.90;;;;;;6343934;22;20010;-92
2024/01/27 07:40:15;;;;;;;10.90;1.38;;;5.40;99.90;;;;;;6344033;22;20024;-89
2024/01/27 07:42:41;;;;;;;14.57;2.35;;;5.40;99.90;;;;;;6344230;22;20421;-90
2024/01/27 07:45:08;;;;;;;19.80;2.20;;;5.30;99.90;;;;;;6344781;22;20018;-89
2024/01/27 07:47:34;;;;;;;13.45;2.03;;;5.40;99.90;;;;;;6345090;22;20425;-89
2024/01/27 07:50:00;;;;;;;15.43;2.05;;;5.40;99.90;;;;;;6354169;22;20025;-89
2024/01/27 07:52:26;;;;;;;16.10;2.05;;;5.40;99.90;;;;;;6346177;22;20044;-90
2024/01/27 07:54:54;;;;;;;17.00;4.70;;;5.40;99.90;;;;;;6343047;22;20006;-89
2024/01/27 07:57:20;;;;;;;11.18;2.38;;;5.30;99.90;;;;;;6344641;22;20002;-90
2024/01/27 07:59:46;;;;;;;18.42;1.90;;;5.40;99.90;;;;;;6343704;22;20032;-90
2024/01/27 08:02:12;;;;;;;16.08;2.05;;;5.30;99.90;;;;;;6371735;22;20010;-93
2024/01/27 08:04:38;;;;;;;16.42;1.73;;;5.40;99.90;;;;;;6346180;22;20113;-90
2024/01/27 08:07:09;;;;;;;18.80;2.47;;;5.40;99.90;;;;;;6344278;22;20010;-91
2024/01/27 08:09:36;;;;;;;14.80;2.25;;;5.30;99.90;;;;;;6371970;22;20447;-89
2024/01/27 08:12:01;;;;;;;17.95;1.88;;;5.40;99.90;;;;;;6344501;22;20048;-93
2024/01/27 08:14:29;;;;;;;12.77;2.15;;;5.30;99.90;;;;;;6344213;22;20426;-89
2024/01/27 08:16:56;;;;;;;11.43;1.80;;;5.30;99.90;;;;;;6344617;22;20002;-92
2024/01/27 08:19:23;;;;;;;12.63;2.15;;;5.30;99.90;;;;;;6372830;22;20352;-92
2024/01/27 08:21:49;;;;;;;11.43;2.67;;;5.30;99.90;;;;;;6346783;22;19998;-92
2024/01/27 08:24:15;;;;;;;11.77;1.80;;;5.30;99.90;;;;;;6373447;22;20071;-91
2024/01/27 08:26:42;;;;;;;17.23;2.13;;;5.30;99.90;;;;;;6343661;22;20033;-90
2024/01/27 08:29:11;;;;;;;18.10;2.53;;;5.30;99.90;;;;;;6344409;22;20034;-92
2024/01/27 08:31:38;;;;;;;17.20;2.40;;;5.30;99.90;;;;;;6343838;22;20006;-91
2024/01/27 08:34:04;;;;;;;19.27;2.15;;;5.30;99.90;;;;;;6343419;22;20018;-91
2024/01/27 08:36:30;;;;;;;13.98;2.08;;;5.30;99.90;;;;;;6372340;22;20005;-91
2024/01/27 08:38:56;;;;;;;13.65;2.40;;;5.30;99.90;;;;;;6344101;22;20006;-90
2024/01/27 08:41:22;;;;;;;17.13;1.95;;;5.30;99.90;;;;;;6343787;22;19999;-91
2024/01/27 08:43:48;;;;;;;12.98;2.20;;;5.30;99.90;;;;;;6343561;22;20041;-91
2024/01/27 08:46:15;;;;;;;12.30;1.98;;;5.30;99.90;;;;;;6344634;22;20437;-91
2024/01/27 08:48:41;;;;;;;11.13;1.90;;;5.40;99.90;;;;;;6344788;22;20012;-89
2024/01/27 08:51:09;;;;;;;9.13;2.05;;;5.40;99.90;;;;;;6373082;22;20022;-91
2024/01/27 08:53:36;;;;;;;10.48;1.67;;;5.40;99.90;;;;;;6351787;22;20002;-91
2024/01/27 08:56:01;;;;;;;11.52;2.42;;;5.40;99.90;;;;;;6353280;22;20033;-91
2024/01/27 08:58:27;;;;;;;17.13;1.92;;;5.40;99.90;;;;;;6354579;22;20002;-91
2024/01/27 09:00:53;;;;;;;12.50;2.15;;;5.40;99.90;;;;;;6354730;22;20002;-90
2024/01/27 09:03:20;;;;;;;11.52;1.70;;;5.40;99.90;;;;;;6350026;22;20010;-91
2024/01/27 09:05:47;;;;;;;16.05;2.45;;;5.40;99.90;;;;;;6347374;22;20010;-91
2024/01/27 09:08:12;;;;;;;17.67;2.17;;;5.40;99.90;;;;;;6344667;22;20007;-92
2024/01/27 09:10:38;;;;;;;12.57;2.38;;;5.40;99.90;;;;;;6344598;22;20012;-92
2024/01/27 09:13:04;;;;;;;14.85;2.30;;;5.50;99.90;;;;;;6343845;22;20002;-90
2024/01/27 09:15:30;;;;;;;16.90;3.00;;;5.50;99.90;;;;;;6343964;22;20465;-92
2024/01/27 09:17:56;;;;;;;15.00;2.05;;;5.50;99.90;;;;;;6371500;22;19995;-91
2024/01/27 09:20:22;;;;;;;17.20;2.13;;;5.50;99.90;;;;;;6344942;22;20018;-91
2024/01/27 09:22:50;;;;;;;17.92;2.95;;;5.50;99.90;;;;;;6345120;22;19998;-92
2024/01/27 09:25:16;;;;;;;15.57;2.22;;;5.50;99.90;;;;;;6318858;22;20093;-91
2024/01/27 09:27:42;;;;;;;17.38;2.10;;;5.50;99.90;;;;;;6344355;22;20030;-92
2024/01/27 09:30:08;;;;;;;9.45;1.60;;;5.50;99.90;;;;;;6344311;22;19994;-92
2024/01/27 09:32:34;;;;;;;7.22;1.60;;;5.40;99.90;;;;;;6344919;22;20105;-91
2024/01/27 09:34:59;;;;;;;12.73;1.75;;;5.50;99.90;;;;;;6346157;22;20002;-90
2024/01/27 09:37:25;;;;;;;11.30;2.63;;;5.50;99.90;;;;;;6345358;22;20006;-91
2024/01/27 09:39:51;;;;;;;10.00;1.88;;;5.50;99.90;;;;;;6343935;22;20006;-91
2024/01/27 09:42:20;;;;;;;7.15;1.95;;;5.50;99.90;;;;;;6343775;22;20009;-91
2024/01/27 09:44:49;;;;;;;9.90;2.40;;;5.50;99.90;;;;;;6343784;22;20049;-91
2024/01/27 09:47:15;;;;;;;14.40;2.03;;;5.50;99.90;;;;;;6343893;22;20017;-92
2024/01/27 09:49:42;;;;;;;20.70;1.90;;;5.50;99.90;;;;;;6344133;22;20030;-92
2024/01/27 09:52:08;;;;;;;8.02;1.95;;;5.50;99.90;;;;;;6344343;22;20025;-91
2024/01/27 09:54:34;;;;;;;14.88;2.40;;;5.50;99.90;;;;;;6372627;22;20111;-92
2024/01/27 09:57:01;;;;;;;11.45;1.90;;;5.50;99.90;;;;;;6343398;22;20460;-92
2024/01/27 09:59:28;;;;;;;12.32;2.28;;;5.50;99.90;;;;;;6343126;22;20006;-91
2024/01/27 10:01:54;;;;;;;12.73;2.47;;;5.50;99.90;;;;;;6343630;22;20075;-90
2024/01/27 10:04:21;;;;;;;13.68;2.47;;;5.50;99.90;;;;;;6347971;22;20014;-93
2024/01/27 10:06:50;;;;;;;18.45;2.30;;;5.50;99.90;;;;;;6345142;22;20010;-91
2024/01/27 10:09:16;;;;;;;19.73;2.90;;;5.40;99.90;;;;;;6344108;22;20002;-90
2024/01/27 10:11:49;;;;;;;9.15;1.52;;;5.50;99.90;;;;;;6344341;22;20002;-89
2024/01/27 10:14:15;;;;;;;12.23;2.15;;;5.50;99.90;;;;;;6371671;22;20013;-90
2024/01/27 10:16:45;;;;;;;14.73;2.22;;;5.50;99.90;;;;;;6343282;22;19998;-91
2024/01/27 10:19:19;;;;;;;20.20;2.22;;;5.50;99.90;;;;;;6343665;22;20010;-91
2024/01/27 10:22:00;;;;;;;17.20;2.80;;;5.50;99.90;;;;;;6346648;22;20029;-93
2024/01/27 10:24:31;;;;;;;11.63;2.63;;;5.50;99.90;;;;;;6344618;22;20037;-93
2024/01/27 10:27:03;;;;;;;13.75;2.70;;;5.50;99.90;;;;;;6343963;22;20093;-94
2024/01/27 10:29:30;;;;;;;10.98;2.22;;;5.50;99.90;;;;;;6344112;22;20013;-93
2024/01/27 10:32:08;;;;;;;16.83;2.65;;;5.50;99.90;;;;;;6343919;22;20051;-94
2024/01/27 10:34:34;;;;;;;16.17;2.38;;;5.60;99.90;;;;;;6343279;22;19998;-93
2024/01/27 10:42:21;;;;;;;10.30;2.22;;;6.10;99.90;;;;;;6204339;22;20502;-94
2024/01/27 10:44:47;;;;;;;12.75;2.05;;;6.40;99.90;;;;;;6310424;22;20021;-95
2024/01/27 10:47:19;;;;;;;9.50;2.03;;;6.60;99.90;;;;;;6288140;22;19999;-95
2024/01/27 10:49:54;;;;;;;14.65;2.10;;;6.90;99.90;;;;;;6304902;22;20009;-94
2024/01/27 10:52:22;;;;;;;22.08;2.20;;;7.00;99.90;;;;;;6305588;22;19991;-94
2024/01/27 10:55:02;;;;;;;8.38;1.77;;;7.10;99.90;;;;;;6294108;22;20090;-93
2024/01/27 10:57:30;;;;;;;16.25;2.72;;;7.10;99.90;;;;;;6293897;22;20003;-94
2024/01/27 11:00:09;;;;;;;14.52;1.98;;;7.10;99.90;;;;;;6291811;22;20046;-94
2024/01/27 11:02:36;;;;;;;10.38;1.77;;;7.10;99.90;;;;;;6287585;22;19999;-95
2024/01/27 11:05:07;;;;;;;9.50;1.70;;;7.20;99.90;;;;;;6289570;22;20097;-94
2024/01/27 11:07:34;;;;;;;18.83;2.17;;;7.30;99.90;;;;;;6285557;22;19996;-93
2024/01/27 11:10:02;;;;;;;12.65;2.20;;;7.40;99.90;;;;;;6285852;22;20010;-93
2024/01/27 11:12:29;;;;;;;9.63;2.00;;;7.50;99.90;;;;;;6285002;22;20003;-94
2024/01/27 11:15:06;;;;;;;16.70;2.20;;;7.60;99.90;;;;;;6314023;22;20021;-93
2024/01/27 11:17:42;;;;;;;13.60;3.10;;;7.70;99.90;;;;;;6287952;22;20007;-92
2024/01/27 11:20:11;;;;;;;7.43;0.85;;;7.70;99.90;;;;;;6291283;22;20090;-92
2024/01/27 11:22:37;;;;;;;9.77;2.40;;;7.70;99.90;;;;;;6292833;22;20031;-91
2024/01/27 11:25:07;;;;;;;10.57;2.00;;;7.70;99.90;;;;;;6313644;22;20007;-93
2024/01/27 11:27:33;;;;;;;12.40;2.50;;;7.70;99.90;;;;;;6284878;22;20031;-93
2024/01/27 11:29:59;;;;;;;13.32;2.55;;;7.70;99.90;;;;;;6284426;22;20003;-93
2024/01/27 11:32:26;;;;;;;10.00;2.97;;;7.70;99.90;;;;;;6283724;22;20011;-93
2024/01/27 11:34:55;;;;;;;17.75;3.05;;;7.60;99.90;;;;;;6283682;22;20069;-93
2024/01/27 11:37:26;;;;;;;15.85;2.55;;;7.60;99.90;;;;;;6285579;22;20003;-94
2024/01/27 11:40:21;;;;;;;11.85;2.35;;;7.50;99.90;;;;;;6286895;22;20446;-94
2024/01/27 11:42:57;;;;;;;6.18;2.00;;;7.50;99.90;;;;;;6260390;22;20050;-95
2024/01/27 11:45:23;;;;;;;13.57;2.78;;;7.40;99.90;;;;;;6283935;22;20019;-94
2024/01/27 11:47:50;;;;;;;14.95;2.60;;;7.30;99.90;;;;;;6281619;22;20080;-94
2024/01/27 11:50:23;;;;;;;7.50;2.55;;;7.30;99.90;;;;;;6258392;22;20014;-93
2024/01/27 11:52:49;;;;;;;12.85;2.40;;;7.30;99.90;;;;;;6264435;22;20023;-94
2024/01/27 11:55:15;;;;;;;15.68;2.55;;;7.30;99.90;;;;;;6289036;22;20032;-94
2024/01/27 11:57:42;;;;;;;22.10;4.30;;;7.20;99.90;;;;;;6290045;22;19999;-94
2024/01/27 12:00:11;;;;;;;14.07;2.10;;;7.30;99.90;;;;;;6285079;22;20058;-94
2024/01/27 12:02:38;;;;;;;14.80;2.22;;;7.30;99.90;;;;;;6288703;22;20394;-93
2024/01/27 12:05:09;;;;;;;9.40;2.20;;;7.40;99.90;;;;;;6293657;22;20015;-94
2024/01/27 12:07:37;;;;;;;9.05;2.13;;;7.50;99.90;;;;;;6281590;22;20109;-94
2024/01/27 12:10:04;;;;;;;14.65;3.20;;;7.50;99.90;;;;;;6280801;22;20007;-93
2024/01/27 12:12:29;;;;;;;18.38;2.33;;;7.70;99.90;;;;;;6281293;22;20296;-96
2024/01/27 12:14:55;;;;;;;12.50;2.30;;;7.80;99.90;;;;;;6283157;22;20030;-94
2024/01/27 12:17:23;;;;;;;12.30;2.55;;;7.90;99.90;;;;;;6308573;22;20007;-95
2024/01/27 12:19:52;;;;;;;13.10;2.60;;;7.90;99.90;;;;;;6284594;22;20067;-93
2024/01/27 12:22:33;;;;;;;11.95;3.15;;;7.90;99.90;;;;;;6284537;22;20542;-95
2024/01/27 12:25:09;;;;;;;;;;;7.90;99.90;;;;;;6295697;22;20025;-94
2024/01/27 12:27:42;;;;;;;13.32;1.80;;;7.90;99.90;;;;;;6315847;22;20306;-94
2024/01/27 12:30:08;;;;;;;14.07;2.30;;;8.00;99.90;;;;;;6285804;22;20000;-94
2024/01/27 12:32:35;;;;;;;12.23;3.05;;;8.20;99.90;;;;;;6284242;22;20006;-95
2024/01/27 12:35:08;;;;;;;10.80;2.22;;;8.50;99.90;;;;;;6312952;22;20007;-94
2024/01/27 12:37:38;;;;;;;11.27;2.38;;;8.80;99.90;;;;;;6284760;22;20460;-94
2024/01/27 12:40:17;;;;;;;17.57;2.77;;;9.10;99.90;;;;;;6284727;22;20007;-95
2024/01/27 12:42:46;;;;;;;12.25;2.60;;;9.50;99.90;;;;;;6284907;22;20277;-96
2024/01/27 12:45:13;;;;;;;18.35;2.58;;;9.90;99.90;;;;;;6285411;22;20011;-95
2024/01/27 12:47:40;;;;;;;14.10;2.20;;;10.30;99.90;;;;;;6286651;22;19995;-95
2024/01/27 12:50:30;;;;;;;12.65;2.17;;;10.50;99.90;;;;;;6287406;22;20014;-95
2024/01/27 12:52:56;;;;;;;16.77;2.78;;;10.50;99.90;;;;;;6293342;22;20003;-94